Alpha, Michigan
Current Conditions -  °F | °C
As of 11:54 PM on Wednesday 17 Dec 2014 (Local Time) from KIMT Reporting Station
Overcast Overcast  
Wind Chill: 16°   Ceiling: 1300
Heat Index: 25°   Visibility: 10mi
Dew Point: 19°   Wind: 9mph
Humidity: 78%   Direction: 10°N
Pressure: 30.21"   Gusts: NA
Location:  46.04°N, 88.38°W
Report Text: KIMT 180554Z AUTO 01008KT 10SM OVC013 M04/M07 A3021 RMK AO2 SLP249 60000 T10391072 11039 21044 410331061 53010
Loading
Personal Weather Stations






























Interactive Weather Map New forecast layout! Learn more

10-Day Weather Forecast

Advertisements
Track Severe Weather on mobile